Lakewood, Pennsylvania
Current Conditions -  °F | °C
As of 5:35 PM on Wednesday 22 Oct 2014 (Local Time) from KMSV Reporting Station
Overcast Overcast  
Wind Chill: 43°   Ceiling: 3500
Heat Index: 48°   Visibility: 10mi
Dew Point: 45°   Wind: 14mph
Humidity: 87%   Direction: 360°N
Pressure: 29.94"   Gusts: 18mph
Location:  41.85°N, 75.38°W
Report Text: KMSV 222135Z AUTO 36012G16KT 10SM FEW028 OVC035 09/07 A2994 RMK AO1 P0001
Loading
Personal Weather Stations






























Interactive Weather Map
Tropical Storm Tracking
New forecast layout! Learn more

10-Day Weather Forecast

Advertisements
Track Severe Weather on mobile